Sylvan Township, Michigan
Current Conditions -  °F | °C
As of 11:01 PM on Wednesday 17 Dec 2014 (Local Time) from KARB Reporting Station
Overcast Overcast  
Wind Chill: -7°   Ceiling: 2900
Heat Index: -2°   Visibility: 10mi
Dew Point: -8°   Wind: 10mph
Humidity: 66%   Direction: 270°W
Pressure: 30.16"   Gusts: NA
Location:  42.3129°N, 84.0322°W
Report Text: KARB 180401Z AUTO 27009KT 10SM OVC029 M02/M08 A3016 RMK AO2 T10221078
Loading
Personal Weather Stations






























Interactive Weather Map New forecast layout! Learn more

10-Day Weather Forecast

Advertisements
Track Severe Weather on mobile